Asiatic Wave — 9V8790 — position and weather

sailwx.info

Track history (hours):
 
Tides and Currents Weather Stations Pressure Air Temp Water Temp Dewpoint Dewpoint Depression Visibility Wind Speed Wind Dir Waves Ship Positions

Asiatic Wave

Last reported at 2016-Apr-29 07:32 UTC. Time now 2016-Apr-29 08:10 UTC.
Position N 35°37' E 139°47'.

Length 148 m; draft 7.5 m.

Type: Ship. MMSI: 564211000.

Date/timePositionNaut miles runAvg speedWind from/ knotsBaromVisibWave heightAir tempDewpointWater temp
2016-Apr-29 07:32N 35°37' E 139°47'0 0.0
2016-Apr-29 06:28N 35°37' E 139°47'0 0.1
2016-Apr-29 05:31N 35°37' E 139°47'0 0.1
2016-Apr-29 04:30N 35°37' E 139°47'3 2.9
2016-Apr-29 03:33N 35°34' E 139°49'2 1.6
2016-Apr-29 02:32N 35°34' E 139°51'0 0.0
2016-Apr-29 01:32N 35°34' E 139°51'0 0.0
2016-Apr-29 00:28N 35°34' E 139°51'0 0.1
2016-Apr-28 23:31N 35°34' E 139°51'0 0.1
2016-Apr-28 22:33N 35°34' E 139°51'0 0.0
2016-Apr-28 21:33N 35°34' E 139°51'0 0.0
2016-Apr-28 20:32N 35°34' E 139°51'0 0.0
2016-Apr-28 19:32N 35°34' E 139°51'0 0.0
2016-Apr-28 18:31N 35°34' E 139°51'0 0.0
2016-Apr-28 17:31N 35°34' E 139°51'0 0.1
2016-Apr-28 16:33N 35°34' E 139°51'6 5.6
2016-Apr-28 15:33N 35°28' E 139°51'1110.9
2016-Apr-28 14:33N 35°19' E 139°44'1211.5
2016-Apr-28 13:34N 35°07' E 139°45'  
2016-Apr-26 07:19N 31°17' E 121°49'6 8.2
2016-Apr-26 06:32N 31°19' E 121°42'2 1.9
2016-Apr-26 05:29N 31°20' E 121°40'0 0.0
2016-Apr-26 03:22N 31°20' E 121°40'0 0.0
2016-Apr-26 02:33N 31°20' E 121°40'0 0.0
2016-Apr-26 01:29N 31°20' E 121°40'0 0.1
2016-Apr-26 00:28N 31°20' E 121°40'0 0.0
2016-Apr-25 22:31N 31°20' E 121°40'0 0.0
2016-Apr-25 21:33N 31°20' E 121°40'0 0.0
2016-Apr-25 20:21N 31°20' E 121°40'0 0.1
2016-Apr-25 19:32N 31°20' E 121°40'1 0.3
2016-Apr-25 17:33N 31°20' E 121°40'8 7.5
2016-Apr-25 16:33N 31°15' E 121°46'1313.2
2016-Apr-25 15:33N 31°06' E 121°58'1412.8
2016-Apr-25 14:26N 31°03' E 122°14'23 1.4
2016-Apr-24 21:31N 30°59' E 122°41'0 0.0
2016-Apr-24 12:30N 30°59' E 122°41'0 0.0
2016-Apr-24 11:18N 30°58' E 122°41'0 0.1
2016-Apr-24 10:29N 30°58' E 122°41'39312.3
2016-Apr-23 02:32N 33°38' E 129°46'1716.9
2016-Apr-23 01:32N 33°47' E 130°04'1817.4
2016-Apr-23 00:31N 33°57' E 130°21'2216.8
2016-Apr-22 23:13N 34°03' E 130°46'205 6.6
2016-Apr-21 16:20N 34°35' E 134°51'1215.0
2016-Apr-21 15:32N 34°36' E 135°06'8 7.8
2016-Apr-21 14:33N 34°40' E 135°14'0 0.1
2016-Apr-21 13:33N 34°40' E 135°14'0 0.0
2016-Apr-21 12:32N 34°40' E 135°14'0 0.0
2016-Apr-21 11:32N 34°40' E 135°14'0 0.0
2016-Apr-21 10:31N 34°40' E 135°14'0 0.1
2016-Apr-21 09:32N 34°40' E 135°14'5 4.8
2016-Apr-21 08:33N 34°37' E 135°19'6 5.8
2016-Apr-21 07:34N 34°39' E 135°25'1 0.7
2016-Apr-21 06:33N 34°39' E 135°26'0 0.0
2016-Apr-21 05:28N 34°39' E 135°26'0 0.0
2016-Apr-21 04:33N 34°39' E 135°26'0 0.0
2016-Apr-21 03:29N 34°39' E 135°26'0 0.0
2016-Apr-21 02:28N 34°39' E 135°26'0 0.0
2016-Apr-21 01:22N 34°39' E 135°26'0 0.0
2016-Apr-21 00:28N 34°39' E 135°26'0 0.0
2016-Apr-20 23:27N 34°39' E 135°26'0 0.0
2016-Apr-20 22:33N 34°39' E 135°26'4 4.2
2016-Apr-20 21:33N 34°37' E 135°21'1211.5
2016-Apr-20 20:33N 34°35' E 135°07'10 9.7
2016-Apr-20 19:33N 34°36' E 134°56'  
Track history (hours):
 
Tides and Currents Weather Stations Pressure Air Temp Water Temp Dewpoint Dewpoint Depression Visibility Wind Speed Wind Dir Waves Ship Positions

Asiatic Wave

Last reported at 2016-Apr-29 07:32 UTC. Time now 2016-Apr-29 08:10 UTC.
Position N 35°37' E 139°47'.

Length 148 m; draft 7.5 m.

Type: Ship. MMSI: 564211000.

Date/timePositionNaut miles runAvg speedWind from/ knotsBaromVisibWave heightAir tempDewpointWater temp
2016-Apr-29 07:32N 35°37' E 139°47'0 0.0
2016-Apr-29 06:28N 35°37' E 139°47'0 0.1
2016-Apr-29 05:31N 35°37' E 139°47'0 0.1
2016-Apr-29 04:30N 35°37' E 139°47'3 2.9
2016-Apr-29 03:33N 35°34' E 139°49'2 1.6
2016-Apr-29 02:32N 35°34' E 139°51'0 0.0
2016-Apr-29 01:32N 35°34' E 139°51'0 0.0
2016-Apr-29 00:28N 35°34' E 139°51'0 0.1
2016-Apr-28 23:31N 35°34' E 139°51'0 0.1
2016-Apr-28 22:33N 35°34' E 139°51'0 0.0
2016-Apr-28 21:33N 35°34' E 139°51'0 0.0
2016-Apr-28 20:32N 35°34' E 139°51'0 0.0
2016-Apr-28 19:32N 35°34' E 139°51'0 0.0
2016-Apr-28 18:31N 35°34' E 139°51'0 0.0
2016-Apr-28 17:31N 35°34' E 139°51'0 0.1
2016-Apr-28 16:33N 35°34' E 139°51'6 5.6
2016-Apr-28 15:33N 35°28' E 139°51'1110.9
2016-Apr-28 14:33N 35°19' E 139°44'1211.5
2016-Apr-28 13:34N 35°07' E 139°45'  
2016-Apr-26 07:19N 31°17' E 121°49'6 8.2
2016-Apr-26 06:32N 31°19' E 121°42'2 1.9
2016-Apr-26 05:29N 31°20' E 121°40'0 0.0
2016-Apr-26 03:22N 31°20' E 121°40'0 0.0
2016-Apr-26 02:33N 31°20' E 121°40'0 0.0
2016-Apr-26 01:29N 31°20' E 121°40'0 0.1
2016-Apr-26 00:28N 31°20' E 121°40'0 0.0
2016-Apr-25 22:31N 31°20' E 121°40'0 0.0
2016-Apr-25 21:33N 31°20' E 121°40'0 0.0
2016-Apr-25 20:21N 31°20' E 121°40'0 0.1
2016-Apr-25 19:32N 31°20' E 121°40'1 0.3
2016-Apr-25 17:33N 31°20' E 121°40'8 7.5
2016-Apr-25 16:33N 31°15' E 121°46'1313.2
2016-Apr-25 15:33N 31°06' E 121°58'1412.8
2016-Apr-25 14:26N 31°03' E 122°14'23 1.4
2016-Apr-24 21:31N 30°59' E 122°41'0 0.0
2016-Apr-24 12:30N 30°59' E 122°41'0 0.0
2016-Apr-24 11:18N 30°58' E 122°41'0 0.1
2016-Apr-24 10:29N 30°58' E 122°41'39312.3
2016-Apr-23 02:32N 33°38' E 129°46'1716.9
2016-Apr-23 01:32N 33°47' E 130°04'1817.4
2016-Apr-23 00:31N 33°57' E 130°21'2216.8
2016-Apr-22 23:13N 34°03' E 130°46'205 6.6
2016-Apr-21 16:20N 34°35' E 134°51'1215.0
2016-Apr-21 15:32N 34°36' E 135°06'8 7.8
2016-Apr-21 14:33N 34°40' E 135°14'0 0.1
2016-Apr-21 13:33N 34°40' E 135°14'0 0.0
2016-Apr-21 12:32N 34°40' E 135°14'0 0.0
2016-Apr-21 11:32N 34°40' E 135°14'0 0.0
2016-Apr-21 10:31N 34°40' E 135°14'0 0.1
2016-Apr-21 09:32N 34°40' E 135°14'5 4.8
2016-Apr-21 08:33N 34°37' E 135°19'6 5.8
2016-Apr-21 07:34N 34°39' E 135°25'1 0.7
2016-Apr-21 06:33N 34°39' E 135°26'0 0.0
2016-Apr-21 05:28N 34°39' E 135°26'0 0.0
2016-Apr-21 04:33N 34°39' E 135°26'0 0.0
2016-Apr-21 03:29N 34°39' E 135°26'0 0.0
2016-Apr-21 02:28N 34°39' E 135°26'0 0.0
2016-Apr-21 01:22N 34°39' E 135°26'0 0.0
2016-Apr-21 00:28N 34°39' E 135°26'0 0.0
2016-Apr-20 23:27N 34°39' E 135°26'0 0.0
2016-Apr-20 22:33N 34°39' E 135°26'4 4.2
2016-Apr-20 21:33N 34°37' E 135°21'1211.5
2016-Apr-20 20:33N 34°35' E 135°07'10 9.7
2016-Apr-20 19:33N 34°36' E 134°56'  

Dump ship's entire track history